Time;durP1;ratioP1;P1;durP2;ratioP2;P2;SDS_P1;SDS_P2;PMS_P1;PMS_P2;Temp;Humidity;BMP_temperature;BMP_pressure;BME280_temperature;BME280_humidity;BME280_pressure;Samples;Min_cycle;Max_cycle;Signal;HPM_P1;HPM_P2
2021/11/07 00:14:22;;;;;;;1.17;0.70;;;20.40;29.80;20.80;94599.00;;;;10441042;22;45156;-60
2021/11/07 00:29:36;;;;;;;0.82;0.70;;;20.40;29.90;20.80;94561.00;;;;10409538;28;45161;-61
2021/11/07 00:45:09;;;;;;;0.93;0.60;;;20.30;29.70;20.80;94547.00;;;;10435503;28;45185;-61
2021/11/07 00:50:16;;;;;;;0.85;0.60;;;20.30;29.80;20.80;94551.00;;;;10425357;28;46929;-59
2021/11/07 00:55:39;;;;;;;0.55;0.50;;;20.30;29.80;20.80;94566.00;;;;10432715;28;47133;-59
2021/11/07 01:00:59;;;;;;;0.77;0.60;;;20.30;29.80;20.80;94561.00;;;;10433368;28;45450;-61
2021/11/07 01:06:00;;;;;;;0.70;0.47;;;20.30;29.70;20.70;94570.00;;;;10432067;28;46464;-61
2021/11/07 01:11:02;;;;;;;0.75;0.60;;;20.30;29.70;20.70;94605.00;;;;10434983;28;46251;-60
2021/11/07 01:16:04;;;;;;;0.50;0.50;;;20.30;29.70;20.70;94605.00;;;;10434156;28;45228;-62
2021/11/07 01:21:05;;;;;;;0.77;0.70;;;20.30;29.80;20.70;94571.00;;;;10449321;28;47100;-60
2021/11/07 01:26:20;;;;;;;0.70;0.63;;;20.30;29.70;20.70;94583.00;;;;10405968;28;45550;-63
2021/11/07 01:31:21;;;;;;;1.02;0.70;;;20.30;29.80;20.70;94589.00;;;;10392382;28;46204;-60
2021/11/07 01:36:34;;;;;;;0.80;0.70;;;20.30;29.60;20.70;94592.00;;;;10391333;28;47495;-61
2021/11/07 01:41:58;;;;;;;0.80;0.40;;;20.30;29.70;20.70;94602.00;;;;10391401;28;48002;-59
2021/11/07 01:46:59;;;;;;;0.90;0.80;;;20.30;29.70;20.70;94608.00;;;;10377723;28;46996;-59
2021/11/07 01:52:03;;;;;;;0.70;0.60;;;20.30;29.70;20.70;94593.00;;;;10433296;28;46624;-60
2021/11/07 01:57:04;;;;;;;0.82;0.80;;;20.30;29.70;20.70;94611.00;;;;10430513;28;45826;-60
2021/11/07 02:02:12;;;;;;;0.80;0.50;;;20.30;29.60;20.70;94613.00;;;;10428458;28;45647;-60
2021/11/07 02:07:14;;;;;;;0.60;0.50;;;20.30;29.60;20.70;94599.00;;;;10431431;28;45223;-62
2021/11/07 02:12:15;;;;;;;0.65;0.55;;;20.30;29.60;20.70;94582.00;;;;10431256;28;45840;-61
2021/11/07 02:17:16;;;;;;;0.82;0.63;;;20.20;29.50;20.70;94569.00;;;;10431168;28;45559;-62
2021/11/07 02:22:17;;;;;;;1.45;0.60;;;20.30;29.60;20.70;94568.00;;;;10430772;28;45659;-61
2021/11/07 02:27:18;;;;;;;0.80;0.70;;;20.20;29.60;20.70;94568.00;;;;10391689;28;45327;-59
2021/11/07 02:32:18;;;;;;;0.73;0.70;;;20.20;29.50;20.70;94559.00;;;;10391709;28;45171;-60
2021/11/07 02:37:19;;;;;;;0.70;0.60;;;20.20;29.60;20.70;94543.00;;;;10391446;28;45223;-60
2021/11/07 02:42:20;;;;;;;0.73;0.60;;;20.20;29.60;20.70;94522.00;;;;10407674;28;45368;-61
2021/11/07 02:47:21;;;;;;;1.20;0.77;;;20.30;29.60;20.70;94498.00;;;;10414130;28;45113;-59
2021/11/07 02:52:22;;;;;;;0.93;0.68;;;20.20;29.50;20.70;94507.00;;;;10398822;28;45423;-59
2021/11/07 02:57:23;;;;;;;1.02;0.70;;;20.30;29.60;20.70;94482.00;;;;10397504;28;45112;-61
2021/11/07 03:02:26;;;;;;;1.20;0.70;;;20.20;29.60;20.70;94475.00;;;;10412099;28;47470;-59
2021/11/07 03:07:27;;;;;;;0.70;0.60;;;20.20;29.60;20.70;94495.00;;;;10413588;28;46069;-61
2021/11/07 03:12:28;;;;;;;0.57;0.50;;;20.20;29.60;20.70;94498.00;;;;10412736;28;46207;-61
2021/11/07 03:17:28;;;;;;;0.93;0.65;;;20.20;29.60;20.70;94507.00;;;;10397111;28;45405;-60
2021/11/07 03:22:30;;;;;;;0.80;0.70;;;20.20;29.60;20.70;94488.00;;;;10415809;28;45327;-60
2021/11/07 03:27:40;;;;;;;1.10;0.80;;;20.20;29.50;20.60;94500.00;;;;10435844;28;48561;-61
2021/11/07 03:32:43;;;;;;;1.30;0.70;;;20.20;29.60;20.70;94486.00;;;;10434882;28;45442;-60
2021/11/07 03:37:56;;;;;;;0.98;0.70;;;20.20;29.60;20.70;94471.00;;;;10437585;28;45583;-59
2021/11/07 03:42:58;;;;;;;0.82;0.70;;;20.20;29.70;20.60;94462.00;;;;10437812;28;46040;-59
2021/11/07 03:48:01;;;;;;;1.50;1.00;;;20.20;29.70;20.60;94449.00;;;;10437862;28;45204;-59
2021/11/07 03:53:02;;;;;;;1.08;0.90;;;20.20;29.60;20.70;94452.00;;;;10434907;28;45093;-60
2021/11/07 03:58:02;;;;;;;0.82;0.73;;;20.20;29.70;20.70;94459.00;;;;10436652;28;45181;-61
2021/11/07 04:03:05;;;;;;;1.15;0.90;;;20.20;29.70;20.70;94442.00;;;;10437995;28;45161;-60
2021/11/07 04:08:07;;;;;;;0.80;0.70;;;20.20;29.70;20.70;94458.00;;;;10435647;28;45179;-61
2021/11/07 04:13:08;;;;;;;1.55;0.80;;;20.20;29.80;20.70;94442.00;;;;10436627;28;48303;-60
2021/11/07 04:18:09;;;;;;;1.42;0.85;;;20.20;29.80;20.60;94443.00;;;;10436886;28;45402;-60
2021/11/07 04:23:10;;;;;;;1.05;0.80;;;20.20;29.70;20.60;94442.00;;;;10427034;28;45375;-60
2021/11/07 04:28:10;;;;;;;1.17;0.70;;;20.20;29.70;20.60;94426.00;;;;10410173;28;45481;-60
2021/11/07 04:33:11;;;;;;;0.88;0.70;;;20.20;29.60;20.60;94449.00;;;;10410510;28;46054;-61
2021/11/07 04:38:12;;;;;;;0.98;0.80;;;20.20;29.60;20.60;94420.00;;;;10408584;28;45428;-59
2021/11/07 04:43:13;;;;;;;1.00;0.80;;;20.20;29.60;20.60;94426.00;;;;10410010;28;47289;-62
2021/11/07 04:48:14;;;;;;;1.05;0.77;;;20.20;29.50;20.60;94435.00;;;;10417370;28;47492;-61
2021/11/07 04:53:20;;;;;;;0.85;0.80;;;20.20;29.60;20.60;94433.00;;;;10434452;28;45377;-60
2021/11/07 04:58:21;;;;;;;1.17;0.60;;;20.20;29.60;20.60;94417.00;;;;10434371;28;45343;-60
2021/11/07 05:03:22;;;;;;;0.98;0.80;;;20.20;29.60;20.60;94398.00;;;;10434261;28;45466;-61
2021/11/07 05:08:23;;;;;;;0.98;0.80;;;20.20;29.60;20.60;94422.00;;;;10417005;28;45821;-59
2021/11/07 05:13:24;;;;;;;1.38;0.95;;;20.20;29.60;20.70;94436.00;;;;10407836;28;46463;-62
2021/11/07 05:18:25;;;;;;;0.85;0.70;;;20.20;29.50;20.70;94427.00;;;;10408660;28;45626;-59
2021/11/07 05:23:25;;;;;;;0.85;0.70;;;20.20;29.50;20.70;94435.00;;;;10419845;28;45238;-59
2021/11/07 05:28:27;;;;;;;0.95;0.80;;;20.30;29.60;20.70;94418.00;;;;10432903;28;45374;-60
2021/11/07 05:33:27;;;;;;;1.40;0.80;;;20.30;29.50;20.80;94420.00;;;;10432437;28;45346;-61
2021/11/07 05:38:28;;;;;;;0.77;0.70;;;20.30;29.50;20.80;94434.00;;;;10433549;28;45280;-60
2021/11/07 05:43:29;;;;;;;1.30;0.90;;;20.40;29.50;20.80;94438.00;;;;10432513;28;46187;-62
2021/11/07 05:48:30;;;;;;;0.85;0.75;;;20.40;29.50;20.80;94433.00;;;;10419827;28;45543;-61
2021/11/07 05:53:30;;;;;;;1.10;0.85;;;20.40;29.50;20.90;94423.00;;;;10407737;28;46957;-60
2021/11/07 05:58:31;;;;;;;1.70;0.70;;;20.40;29.40;20.90;94439.00;;;;10406853;28;45259;-62
2021/11/07 06:03:32;;;;;;;0.73;0.70;;;20.40;29.40;20.90;94456.00;;;;10404735;28;45496;-60
2021/11/07 06:08:33;;;;;;;1.10;0.73;;;20.50;29.40;20.90;94442.00;;;;10390416;28;48209;-60
2021/11/07 06:13:35;;;;;;;1.40;0.82;;;20.40;29.30;20.90;94450.00;;;;10390670;28;47232;-60
2021/11/07 06:18:36;;;;;;;0.70;0.70;;;20.50;29.30;20.90;94439.00;;;;10391975;28;47226;-60
2021/11/07 06:23:37;;;;;;;0.70;0.70;;;20.50;29.30;20.90;94429.00;;;;10393083;28;45158;-61
2021/11/07 06:28:37;;;;;;;0.60;0.60;;;20.50;29.30;20.90;94449.00;;;;10392221;28;45249;-60
2021/11/07 06:33:39;;;;;;;1.10;0.80;;;20.50;29.30;20.90;94463.00;;;;10408074;28;45442;-59
2021/11/07 06:38:40;;;;;;;1.30;0.85;;;20.50;29.30;21.00;94464.00;;;;10407052;28;47500;-60
2021/11/07 06:43:40;;;;;;;0.60;0.60;;;20.50;29.30;20.90;94465.00;;;;10407467;28;46123;-61
2021/11/07 06:48:41;;;;;;;2.00;0.82;;;20.50;29.20;21.00;94452.00;;;;10390170;28;45164;-62
2021/11/07 06:53:43;;;;;;;1.15;0.80;;;20.50;29.10;21.00;94452.00;;;;10402183;28;45392;-61
2021/11/07 06:58:43;;;;;;;1.85;1.10;;;20.50;29.20;21.00;94463.00;;;;10389250;28;47106;-59
2021/11/07 07:03:44;;;;;;;0.80;0.70;;;20.50;29.10;21.00;94464.00;;;;10391953;28;46117;-61
2021/11/07 07:08:54;;;;;;;0.82;0.82;;;20.60;29.10;21.00;94459.00;;;;10407051;28;45459;-62
2021/11/07 07:14:05;;;;;;;0.82;0.77;;;20.50;29.10;21.00;94441.00;;;;10405726;28;46847;-60
2021/11/07 07:30:11;;;;;;;2.10;1.23;;;20.60;29.30;21.00;94395.00;;;;10371523;28;45162;-60
2021/11/07 07:35:13;;;;;;;1.75;1.20;;;20.60;28.90;21.00;94389.00;;;;10411976;28;45994;-59
2021/11/07 07:40:14;;;;;;;3.05;1.35;;;20.60;29.10;21.00;94421.00;;;;10412659;28;45315;-59
2021/11/07 07:45:15;;;;;;;1.65;1.00;;;20.60;28.90;21.00;94412.00;;;;10397224;28;46650;-60
2021/11/07 07:50:19;;;;;;;1.67;1.40;;;20.60;29.00;21.10;94414.00;;;;10412493;28;45204;-60
2021/11/07 07:55:20;;;;;;;2.05;1.40;;;20.60;29.10;21.10;94402.00;;;;10392187;28;47129;-63
2021/11/07 08:00:21;;;;;;;2.13;1.40;;;20.70;29.10;21.10;94367.00;;;;10409232;28;46425;-61
2021/11/07 08:05:23;;;;;;;2.13;1.52;;;20.70;29.10;21.10;94405.00;;;;10412173;28;47562;-61
2021/11/07 08:10:24;;;;;;;2.55;1.70;;;20.70;29.10;21.10;94399.00;;;;10378837;28;47003;-60
2021/11/07 08:15:25;;;;;;;1.95;1.75;;;20.60;29.10;21.10;94382.00;;;;10411393;28;45196;-60
2021/11/07 08:20:26;;;;;;;3.35;2.03;;;20.60;29.10;21.10;94381.00;;;;10396317;28;45274;-59
2021/11/07 08:25:27;;;;;;;2.60;1.80;;;20.70;29.20;21.10;94367.00;;;;10395781;28;45188;-61
2021/11/07 08:30:30;;;;;;;2.67;1.80;;;20.70;29.20;21.10;94373.00;;;;10411295;28;45159;-60
2021/11/07 08:35:33;;;;;;;2.70;1.80;;;20.70;29.20;21.10;94369.00;;;;10410736;28;45202;-61
2021/11/07 09:07:19;;;;;;;1.48;1.30;;;20.70;28.90;21.10;94377.00;;;;10434019;28;45235;-63
2021/11/07 09:12:09;;;;;;;2.80;1.52;;;20.70;29.10;21.10;94362.00;;;;10431179;28;45258;-60
2021/11/07 09:17:14;;;;;;;1.85;1.20;;;20.70;29.00;21.10;94364.00;;;;10409751;28;45986;-60
2021/11/07 09:22:27;;;;;;;1.50;1.00;;;20.70;28.70;21.10;94353.00;;;;10392359;28;45442;-60
2021/11/07 09:27:33;;;;;;;1.50;0.88;;;20.70;29.00;21.20;94343.00;;;;10394045;28;45436;-63
2021/11/07 09:48:29;;;;;;;1.35;0.90;;;20.80;29.80;21.40;94339.00;;;;10433746;28;45246;-60
2021/11/07 09:53:30;;;;;;;1.40;1.20;;;20.90;29.90;21.30;94335.00;;;;10433111;28;46141;-59
2021/11/07 09:58:31;;;;;;;2.15;1.30;;;20.80;29.30;21.20;94325.00;;;;10433307;28;46367;-59
2021/11/07 10:03:33;;;;;;;1.52;1.00;;;20.80;29.20;21.20;94311.00;;;;10433240;28;47916;-61
2021/11/07 10:08:44;;;;;;;1.60;1.10;;;20.80;29.30;21.20;94299.00;;;;10433127;28;45308;-59
2021/11/07 10:14:13;;;;;;;1.00;0.90;;;20.80;29.30;21.20;94303.00;;;;10433248;28;46116;-60
2021/11/07 10:19:31;;;;;;;3.30;1.00;;;20.80;29.40;21.20;94284.00;;;;10433123;28;45135;-60
2021/11/07 10:24:38;;;;;;;1.58;1.17;;;20.80;29.40;21.20;94272.00;;;;10432733;28;45291;-61
2021/11/07 10:29:50;;;;;;;1.90;1.20;;;20.80;29.40;21.30;94276.00;;;;10432645;28;45557;-61
2021/11/07 10:41:00;;;;;;;2.22;1.00;;;20.90;29.80;21.40;94272.00;;;;10429438;28;45269;-62
2021/11/07 10:46:37;;;;;;;4.93;1.35;;;20.90;30.00;21.50;94254.00;;;;10413968;28;46174;-62
2021/11/07 10:57:18;;;;;;;4.45;1.52;;;21.10;30.60;21.50;94278.00;;;;10403043;28;45884;-61
2021/11/07 11:02:43;;;;;;;4.05;1.30;;;21.10;30.50;21.50;94271.00;;;;10434289;28;46054;-59
2021/11/07 11:07:59;;;;;;;3.30;1.15;;;21.00;30.40;21.40;94263.00;;;;10438592;28;47825;-60
2021/11/07 11:13:14;;;;;;;3.80;1.03;;;21.10;30.30;21.50;94263.00;;;;10438597;28;45180;-60
2021/11/07 11:18:31;;;;;;;2.38;1.10;;;21.00;30.00;21.40;94230.00;;;;10438055;28;45299;-61
2021/11/07 11:24:08;;;;;;;3.13;1.10;;;21.00;30.00;21.50;94210.00;;;;10424644;28;46958;-59
2021/11/07 11:34:16;;;;;;;4.13;1.15;;;21.00;30.10;21.40;94196.00;;;;10437838;28;45176;-63
2021/11/07 11:39:22;;;;;;;2.15;1.00;;;21.00;30.50;21.50;94219.00;;;;10439000;28;45195;-61
2021/11/07 11:44:24;;;;;;;3.00;1.15;;;21.00;30.30;21.50;94186.00;;;;10407431;28;45211;-61
2021/11/07 12:05:18;;;;;;;2.42;0.90;;;21.10;30.00;21.50;94207.00;;;;10410137;28;45313;-61
2021/11/07 12:10:41;;;;;;;1.65;0.85;;;21.10;30.00;21.50;94196.00;;;;10396773;28;46893;-62
2021/11/07 12:15:50;;;;;;;2.15;1.10;;;21.10;30.00;21.50;94185.00;;;;10410097;28;45561;-61
2021/11/07 12:20:59;;;;;;;1.58;0.70;;;21.10;30.00;21.50;94195.00;;;;10410579;28;47310;-62
2021/11/07 12:26:27;;;;;;;1.88;0.77;;;21.10;30.00;21.50;94192.00;;;;10427276;28;45219;-62
2021/11/07 12:31:28;;;;;;;2.72;0.70;;;21.00;29.90;21.50;94191.00;;;;10435916;28;45225;-62
2021/11/07 12:40:27;;;;;;;1.95;0.73;;;21.00;29.90;21.50;94178.00;;;;10435331;28;45411;-63
2021/11/07 12:42:10;;;;;;;1.92;0.60;;;21.00;30.20;21.50;94180.00;;;;10436203;28;46180;-62
2021/11/07 12:47:11;;;;;;;0.70;0.60;;;21.00;30.30;21.40;94196.00;;;;10434998;28;46177;-61
2021/11/07 12:52:14;;;;;;;1.30;0.57;;;21.00;29.50;21.40;94197.00;;;;10435152;28;47381;-61
2021/11/07 12:57:17;;;;;;;1.02;0.47;;;21.00;29.80;21.50;94198.00;;;;10434740;28;46403;-60
2021/11/07 13:02:22;;;;;;;0.93;0.50;;;21.00;30.00;21.40;94182.00;;;;10435234;28;45362;-63
2021/11/07 13:07:30;;;;;;;1.00;0.40;;;21.00;30.00;21.50;94189.00;;;;10435277;28;46073;-64
2021/11/07 13:12:38;;;;;;;1.35;0.43;;;21.00;30.30;21.50;94178.00;;;;10421929;28;46988;-62
2021/11/07 13:28:29;;;;;;;0.75;0.50;;;21.10;30.80;21.50;94168.00;;;;10433234;28;45155;-60
2021/11/07 13:33:30;;;;;;;1.85;0.50;;;21.10;30.60;21.50;94153.00;;;;10433482;28;45957;-60
2021/11/07 13:38:37;;;;;;;2.03;0.57;;;21.00;30.50;21.50;94153.00;;;;10435819;28;45332;-61
2021/11/07 13:43:38;;;;;;;1.10;0.50;;;21.00;30.50;21.50;94153.00;;;;10435283;28;45375;-61
2021/11/07 13:48:39;;;;;;;0.80;0.50;;;21.00;30.40;21.50;94137.00;;;;10434908;28;45331;-60
2021/11/07 13:53:42;;;;;;;0.63;0.40;;;21.00;30.40;21.50;94129.00;;;;10433735;28;45248;-61
2021/11/07 13:58:43;;;;;;;0.60;0.40;;;21.00;30.50;21.50;94118.00;;;;10433755;28;45592;-60
2021/11/07 14:03:45;;;;;;;2.53;0.68;;;21.00;30.50;21.50;94113.00;;;;10431456;28;45513;-60
2021/11/07 14:08:57;;;;;;;1.35;0.70;;;21.00;30.40;21.50;94130.00;;;;10432578;28;45681;-60
2021/11/07 14:14:02;;;;;;;0.95;0.47;;;21.00;30.40;21.50;94138.00;;;;10433773;28;45359;-62
2021/11/07 14:19:11;;;;;;;1.45;0.88;;;21.00;30.40;21.50;94136.00;;;;10433047;28;45477;-60
2021/11/07 14:24:29;;;;;;;0.63;0.45;;;21.00;30.40;21.40;94120.00;;;;10432668;28;46494;-60
2021/11/07 14:29:47;;;;;;;0.77;0.43;;;21.00;30.50;21.50;94120.00;;;;10432999;28;45309;-60
2021/11/07 14:35:14;;;;;;;0.93;0.47;;;21.00;30.50;21.50;94125.00;;;;10432654;28;46039;-61
2021/11/07 14:40:26;;;;;;;1.05;0.38;;;21.00;30.60;21.50;94115.00;;;;10432869;28;45262;-60
2021/11/07 14:56:11;;;;;;;0.85;0.40;;;21.00;30.70;21.50;94137.00;;;;10417967;28;46067;-61
2021/11/07 15:16:49;;;;;;;0.82;0.40;;;21.00;30.90;21.40;94132.00;;;;10439527;28;45315;-60
2021/11/07 15:21:56;;;;;;;1.70;0.63;;;21.00;31.00;21.50;94117.00;;;;10439870;28;45323;-60
2021/11/07 15:26:58;;;;;;;0.57;0.30;;;21.00;31.10;21.40;94096.00;;;;10438130;28;45431;-60
2021/11/07 15:32:12;;;;;;;2.13;0.50;;;21.00;31.20;21.50;94106.00;;;;10439341;28;46087;-62
2021/11/07 15:37:33;;;;;;;1.45;0.47;;;21.00;31.30;21.50;94096.00;;;;10437255;28;46349;-61
2021/11/07 15:42:41;;;;;;;1.58;0.50;;;21.00;31.60;21.40;94096.00;;;;10427372;28;45925;-61
2021/11/07 15:47:48;;;;;;;0.75;0.50;;;21.00;31.80;21.60;94085.00;;;;10436986;28;45383;-63
2021/11/07 15:52:59;;;;;;;4.03;0.40;;;21.10;32.60;21.60;94080.00;;;;10436552;28;45283;-62
2021/11/07 15:58:25;;;;;;;1.25;0.50;;;21.10;32.30;21.60;94074.00;;;;10436831;28;45335;-62
2021/11/07 16:18:40;;;;;;;0.93;0.40;;;21.10;32.00;21.50;94068.00;;;;10420765;28;45214;-64
2021/11/07 16:23:42;;;;;;;1.25;0.73;;;21.10;31.90;21.40;94095.00;;;;10419212;28;47025;-60
2021/11/07 16:28:44;;;;;;;1.15;0.70;;;21.10;31.40;21.50;94096.00;;;;10434448;28;45212;-66
2021/11/07 16:33:53;;;;;;;1.13;0.60;;;21.10;31.70;21.40;94117.00;;;;10430012;28;45181;-63
2021/11/07 16:38:57;;;;;;;1.55;0.80;;;21.10;31.60;21.50;94136.00;;;;10417403;28;45323;-64
2021/11/07 16:43:59;;;;;;;0.52;0.50;;;21.10;31.70;21.50;94126.00;;;;10377234;28;47483;-66
2021/11/07 16:49:02;;;;;;;1.00;0.50;;;21.10;31.80;21.50;94125.00;;;;10390421;28;45935;-67
2021/11/07 16:54:18;;;;;;;1.75;0.70;;;21.10;31.90;21.60;94132.00;;;;10391474;28;46390;-68
2021/11/07 17:04:34;;;;;;;0.85;0.45;;;21.10;32.30;21.60;94128.00;;;;10395872;28;45997;-64
2021/11/07 17:09:41;;;;;;;0.90;0.60;;;21.10;32.40;21.60;94139.00;;;;10433990;28;45526;-59
2021/11/07 17:14:44;;;;;;;0.75;0.40;;;21.20;32.40;21.60;94126.00;;;;10433554;28;45160;-61
2021/11/07 17:19:52;;;;;;;1.02;0.50;;;21.10;32.20;21.60;94140.00;;;;10416714;28;47853;-61
2021/11/07 17:24:57;;;;;;;0.40;0.35;;;21.10;32.10;21.60;94131.00;;;;10424931;28;45500;-64
2021/11/07 17:30:06;;;;;;;0.68;0.50;;;21.10;32.30;21.60;94149.00;;;;10393177;28;47026;-65
2021/11/07 17:35:16;;;;;;;1.60;0.50;;;21.20;32.50;21.60;94128.00;;;;10396054;28;47539;-66
2021/11/07 17:56:17;;;;;;;2.33;0.40;;;21.20;33.00;21.70;94141.00;;;;10418768;28;45625;-64
2021/11/07 18:01:18;;;;;;;0.90;0.50;;;21.30;33.00;21.70;94163.00;;;;10415262;28;47462;-63
2021/11/07 18:06:19;;;;;;;0.73;0.40;;;21.30;33.00;21.70;94153.00;;;;10387889;28;47406;-63
2021/11/07 18:11:21;;;;;;;1.42;0.45;;;21.30;33.00;21.70;94146.00;;;;10407515;28;45270;-65
2021/11/07 18:16:22;;;;;;;1.38;0.50;;;21.30;33.00;21.70;94150.00;;;;10406663;28;48069;-65
2021/11/07 18:21:25;;;;;;;12.98;0.82;;;21.30;33.00;21.70;94147.00;;;;10391495;28;46867;-66
2021/11/07 18:26:28;;;;;;;0.47;0.40;;;21.30;33.40;21.70;94145.00;;;;10441617;28;47275;-62
2021/11/07 18:31:29;;;;;;;1.58;0.60;;;21.30;33.10;21.60;94141.00;;;;10414930;28;47010;-64
2021/11/07 18:36:32;;;;;;;1.23;0.75;;;21.30;32.80;21.50;94136.00;;;;10431232;28;46948;-64
2021/11/07 18:41:33;;;;;;;0.65;0.60;;;21.20;32.60;21.60;94142.00;;;;10414490;28;47955;-62
2021/11/07 18:46:34;;;;;;;0.55;0.50;;;21.20;32.40;21.60;94160.00;;;;10432287;28;45331;-65
2021/11/07 18:51:35;;;;;;;0.65;0.45;;;21.10;32.30;21.60;94152.00;;;;10414347;28;47413;-64
2021/11/07 18:56:36;;;;;;;0.40;0.30;;;21.10;32.60;21.60;94153.00;;;;10431628;28;45517;-61
2021/11/07 19:01:37;;;;;;;0.63;0.47;;;21.20;32.50;21.60;94144.00;;;;10433339;28;45212;-64
2021/11/07 19:06:37;;;;;;;0.30;0.30;;;21.20;32.40;21.60;94145.00;;;;10431845;28;45372;-64
2021/11/07 19:11:40;;;;;;;1.02;0.30;;;21.20;32.40;21.60;94147.00;;;;10431917;28;45228;-61
2021/11/07 19:16:41;;;;;;;0.50;0.40;;;21.20;32.30;21.60;94179.00;;;;10431609;28;45436;-63
2021/11/07 19:21:42;;;;;;;0.40;0.28;;;21.20;32.40;21.60;94170.00;;;;10405627;28;45331;-63
2021/11/07 19:26:43;;;;;;;0.40;0.30;;;21.20;32.60;21.60;94157.00;;;;10394827;28;45366;-62
2021/11/07 19:31:43;;;;;;;0.57;0.32;;;21.10;32.30;21.60;94177.00;;;;10400584;28;45241;-63
2021/11/07 19:36:44;;;;;;;0.47;0.40;;;21.10;32.30;21.60;94187.00;;;;10395916;28;47264;-63
2021/11/07 19:41:46;;;;;;;0.85;0.60;;;21.10;32.20;21.60;94177.00;;;;10412653;28;45169;-61
2021/11/07 19:46:54;;;;;;;0.80;0.45;;;21.10;32.20;21.60;94161.00;;;;10437870;28;45421;-62
2021/11/07 19:51:57;;;;;;;0.60;0.55;;;21.10;32.30;21.60;94159.00;;;;10438109;28;45380;-62
2021/11/07 19:56:59;;;;;;;0.40;0.40;;;21.10;32.30;21.50;94149.00;;;;10437203;28;45342;-62
2021/11/07 20:07:23;;;;;;;0.73;0.43;;;21.10;32.30;21.60;94152.00;;;;10438365;28;45219;-62
2021/11/07 20:12:26;;;;;;;0.55;0.40;;;21.10;32.30;21.60;94156.00;;;;10438015;28;45145;-64
2021/11/07 20:17:29;;;;;;;0.52;0.50;;;21.10;32.30;21.60;94152.00;;;;10417442;28;47405;-62
2021/11/07 20:22:29;;;;;;;1.02;0.57;;;21.10;32.40;21.60;94139.00;;;;10438415;28;45183;-62
2021/11/07 20:27:32;;;;;;;0.85;0.47;;;21.10;32.30;21.60;94135.00;;;;10434074;28;45268;-62
2021/11/07 20:32:33;;;;;;;0.50;0.40;;;21.10;32.40;21.60;94136.00;;;;10431313;28;45230;-63
2021/11/07 20:37:37;;;;;;;0.75;0.50;;;21.10;32.40;21.60;94145.00;;;;10413032;28;45364;-65
2021/11/07 20:42:45;;;;;;;2.22;0.60;;;21.10;32.60;21.70;94144.00;;;;10435034;28;45471;-65
2021/11/07 20:47:50;;;;;;;0.68;0.50;;;21.20;32.50;21.80;94163.00;;;;10407830;28;47036;-65
2021/11/07 20:53:18;;;;;;;0.80;0.40;;;21.30;32.50;21.90;94173.00;;;;10423041;28;45220;-65
2021/11/07 20:58:30;;;;;;;0.75;0.50;;;21.40;32.50;21.90;94178.00;;;;10405015;28;46265;-66
2021/11/07 21:03:58;;;;;;;0.47;0.40;;;21.40;32.40;21.90;94183.00;;;;10418815;28;47052;-65
2021/11/07 21:14:03;;;;;;;0.50;0.45;;;21.50;32.40;22.00;94163.00;;;;10389000;28;45704;-65
2021/11/07 21:29:20;;;;;;;0.50;0.30;;;21.40;32.30;21.90;94173.00;;;;10392899;28;45236;-66
2021/11/07 21:34:29;;;;;;;2.47;0.47;;;21.40;32.40;21.90;94145.00;;;;10392764;28;47330;-66
2021/11/07 21:39:35;;;;;;;0.45;0.30;;;21.40;32.40;21.80;94132.00;;;;10393195;28;48244;-65
2021/11/07 21:44:37;;;;;;;0.32;0.30;;;21.40;32.50;21.80;94134.00;;;;10418298;28;46905;-66
2021/11/07 21:49:37;;;;;;;0.38;0.38;;;21.30;32.40;21.80;94133.00;;;;10416031;28;46995;-66
2021/11/07 21:54:38;;;;;;;0.45;0.20;;;21.30;32.50;21.70;94134.00;;;;10416817;28;47027;-66
2021/11/07 21:59:39;;;;;;;0.20;0.20;;;21.30;32.50;21.70;94144.00;;;;10433226;28;45181;-66
2021/11/07 22:04:41;;;;;;;0.43;0.30;;;21.30;32.50;21.70;94148.00;;;;10326395;28;46954;-66
2021/11/07 22:09:41;;;;;;;0.30;0.28;;;21.20;32.50;21.70;94149.00;;;;10416871;28;48371;-64
2021/11/07 22:14:50;;;;;;;0.32;0.30;;;21.20;32.60;21.60;94132.00;;;;10433341;28;45403;-66
2021/11/07 22:19:53;;;;;;;0.57;0.30;;;21.10;32.60;21.60;94126.00;;;;10433393;28;46719;-66
2021/11/07 22:25:06;;;;;;;0.50;0.35;;;21.20;32.60;21.60;94130.00;;;;10433947;28;46080;-66
2021/11/07 22:30:11;;;;;;;0.68;0.30;;;21.10;32.60;21.60;94149.00;;;;10435277;28;47995;-65
2021/11/07 22:35:20;;;;;;;0.20;0.20;;;21.10;32.60;21.60;94158.00;;;;10433664;28;46891;-66
2021/11/07 22:40:21;;;;;;;0.20;0.20;;;21.10;32.70;21.60;94145.00;;;;10434166;28;47082;-66
2021/11/07 22:45:22;;;;;;;0.45;0.30;;;21.10;32.70;21.50;94150.00;;;;10432918;28;47289;-66
2021/11/07 22:55:31;;;;;;;0.20;0.20;;;21.00;32.70;21.50;94161.00;;;;10391472;28;45185;-66
2021/11/07 23:05:45;;;;;;;0.20;0.13;;;21.10;32.80;21.50;94162.00;;;;10397929;28;45336;-65
2021/11/07 23:10:45;;;;;;;0.10;0.10;;;21.00;32.80;21.50;94142.00;;;;10382326;28;46941;-65
2021/11/07 23:15:46;;;;;;;0.30;0.30;;;21.00;32.80;21.50;94186.00;;;;10413837;28;47528;-66
2021/11/07 23:20:47;;;;;;;0.63;0.20;;;21.00;32.80;21.50;94180.00;;;;10380722;28;47776;-66
2021/11/07 23:25:49;;;;;;;0.20;0.20;;;21.00;32.80;21.50;94159.00;;;;10396846;28;46537;-66
2021/11/07 23:30:52;;;;;;;0.20;0.20;;;21.00;32.90;21.50;94163.00;;;;10396975;28;46353;-65
2021/11/07 23:35:54;;;;;;;0.10;0.10;;;21.00;32.90;21.50;94162.00;;;;10396585;28;45472;-66
2021/11/07 23:40:56;;;;;;;0.30;0.20;;;21.00;32.90;21.50;94159.00;;;;10380223;28;47883;-65
2021/11/07 23:45:56;;;;;;;0.13;0.13;;;21.00;32.90;21.50;94164.00;;;;10379763;28;47213;-64
2021/11/07 23:51:30;;;;;;;0.28;0.20;;;20.90;32.90;21.50;94165.00;;;;10379599;28;46999;-64
2021/11/07 23:56:22;;;;;;;0.20;0.20;;;21.00;32.90;21.40;94157.00;;;;10395905;28;45243;-66
